San Diego, California
Traffic Map
Current Weather Conditions
San Diego, California
Broken Clouds
Broken Clouds
20°
Feels Like: 20°
Wind Chill: 20° Ceiling: 18000
Heat Index: 20° Visibility: 10mi
Dew Point: 19° Wind: 3mph
Humidity: 93% Direction: 10° (N)
Pressure: 29.91in Gusts: 0mph
Raw Report DataKSAN 260951Z 01003KT 10SM FEW010 BKN180 20/19 A2991 RMK AO2 SLP127 T02000189
Traffic Incident Summary
Active as of:
Severity:
Category:
InformationThere was an issue retrieving the traffic information for this location. Please try a different location or try again shortly.
Advertisements
Track Severe Weather on mobile